createdAt,value
2018-05-06T00:01:13.741Z,7.33
2018-05-06T00:03:41.852Z,7.00
2018-05-06T00:06:09.899Z,8.20
2018-05-06T00:08:37.881Z,7.90
2018-05-06T00:11:05.897Z,7.30
2018-05-06T00:13:33.916Z,6.97
2018-05-06T00:16:02.031Z,7.00
2018-05-06T00:18:30.119Z,7.57
2018-05-06T00:20:58.219Z,8.63
2018-05-06T00:23:26.316Z,6.80
2018-05-06T00:25:54.287Z,6.37
2018-05-06T00:28:22.255Z,7.80
2018-05-06T00:30:50.223Z,8.30
2018-05-06T00:33:18.736Z,8.50
2018-05-06T00:35:47.318Z,7.90
2018-05-06T00:38:15.474Z,7.50
2018-05-06T00:40:43.499Z,7.30
2018-05-06T00:43:11.501Z,7.80
2018-05-06T00:45:39.452Z,7.43
2018-05-06T00:48:07.495Z,6.63
2018-05-06T00:50:36.150Z,5.87
2018-05-06T00:53:04.941Z,7.20
2018-05-06T00:55:33.444Z,7.20
2018-05-06T00:58:02.149Z,7.40
2018-05-06T01:00:30.895Z,8.00
2018-05-06T01:02:59.373Z,7.10
2018-05-06T01:05:27.898Z,6.70
2018-05-06T01:07:56.240Z,6.80
2018-05-06T01:10:24.473Z,6.97
2018-05-06T01:12:52.887Z,7.90
2018-05-06T01:15:21.568Z,7.63
2018-05-06T01:17:49.966Z,6.80
2018-05-06T01:20:18.438Z,7.20
2018-05-06T01:22:47.209Z,6.53
2018-05-06T01:25:15.991Z,7.07
2018-05-06T01:27:44.795Z,6.83
2018-05-06T01:30:13.220Z,6.33
2018-05-06T01:32:41.642Z,7.60
2018-05-06T01:35:10.298Z,7.00
2018-05-06T01:37:38.730Z,8.10
2018-05-06T01:40:07.519Z,5.70
2018-05-06T01:42:36.280Z,7.00
2018-05-06T01:45:04.282Z,6.10
2018-05-06T01:47:32.334Z,5.23
2018-05-06T01:50:00.299Z,6.23
2018-05-06T01:52:28.284Z,5.70
2018-05-06T01:54:56.437Z,5.30
2018-05-06T01:57:25.157Z,5.60
2018-05-06T01:59:53.601Z,5.83
2018-05-06T02:02:21.618Z,4.90
2018-05-06T02:04:49.650Z,6.20
2018-05-06T02:07:17.698Z,5.77
2018-05-06T02:09:45.755Z,4.70
2018-05-06T02:12:13.750Z,6.00
2018-05-06T02:14:41.812Z,5.20
2018-05-06T02:17:09.762Z,4.80
2018-05-06T02:19:37.719Z,5.10
2018-05-06T02:22:05.773Z,5.07
2018-05-06T02:24:33.743Z,5.97
2018-05-06T02:27:02.194Z,6.37
2018-05-06T02:29:30.141Z,5.67
2018-05-06T02:31:58.199Z,5.20
2018-05-06T02:34:26.274Z,5.20
2018-05-06T02:36:54.242Z,5.07
2018-05-06T02:39:22.208Z,5.23
2018-05-06T02:41:50.218Z,6.63
2018-05-06T02:44:18.259Z,5.63
2018-05-06T02:46:46.259Z,5.30
2018-05-06T02:49:14.286Z,5.80
2018-05-06T02:51:42.299Z,7.10
2018-05-06T02:54:10.338Z,6.63
2018-05-06T02:56:38.351Z,7.40
2018-05-06T02:59:06.358Z,6.67
2018-05-06T03:01:34.381Z,8.00
2018-05-06T03:04:02.373Z,7.60
2018-05-06T03:06:30.315Z,6.50
2018-05-06T03:08:58.268Z,7.57
2018-05-06T03:11:26.237Z,7.50
2018-05-06T03:13:54.190Z,7.00
2018-05-06T03:16:22.228Z,7.13
2018-05-06T03:18:50.159Z,10.20
2018-05-06T03:21:18.166Z,10.50
2018-05-06T03:23:46.199Z,9.00
2018-05-06T03:26:14.165Z,9.03
2018-05-06T03:28:42.430Z,9.17
2018-05-06T03:31:10.452Z,8.63
2018-05-06T03:33:38.470Z,9.07
2018-05-06T03:36:06.516Z,9.80
2018-05-06T03:38:35.115Z,6.70
2018-05-06T03:41:03.587Z,6.80
2018-05-06T03:43:32.385Z,7.30
2018-05-06T03:46:00.840Z,6.50
2018-05-06T03:48:29.280Z,8.00
2018-05-06T03:50:57.925Z,8.10
2018-05-06T03:53:26.493Z,7.43
2018-05-06T03:59:16.054Z,8.30
2018-05-06T04:01:44.225Z,9.63
2018-05-06T04:04:12.654Z,15.03
2018-05-06T04:06:41.911Z,11.27
2018-05-06T04:09:10.519Z,8.40
2018-05-06T04:11:38.544Z,6.40
2018-05-06T04:14:06.496Z,7.90
2018-05-06T04:16:34.487Z,6.00
2018-05-06T04:19:02.474Z,6.47
2018-05-06T04:21:30.547Z,5.80
2018-05-06T04:23:58.540Z,5.43
2018-05-06T04:26:26.531Z,5.90
2018-05-06T04:28:54.910Z,6.80
2018-05-06T04:31:22.929Z,6.90
2018-05-06T04:33:50.895Z,7.43
2018-05-06T04:36:18.921Z,7.60
2018-05-06T04:38:47.153Z,7.87
2018-05-06T04:41:15.131Z,8.53
2018-05-06T04:43:43.190Z,9.90
2018-05-06T04:46:11.252Z,7.80
2018-05-06T04:48:39.271Z,7.73
2018-05-06T04:51:07.535Z,7.77
2018-05-06T04:53:35.549Z,8.43
2018-05-06T04:56:03.491Z,7.40
2018-05-06T04:58:31.553Z,8.03
2018-05-06T05:00:59.568Z,6.80
2018-05-06T05:03:27.621Z,8.07
2018-05-06T05:05:55.607Z,8.67
2018-05-06T05:08:23.623Z,8.30
2018-05-06T05:10:51.543Z,7.87
2018-05-06T05:13:19.525Z,8.10
2018-05-06T05:15:47.582Z,8.30
2018-05-06T05:18:16.240Z,7.03
2018-05-06T05:20:44.415Z,10.40
2018-05-06T05:23:12.363Z,17.63
2018-05-06T05:25:40.396Z,8.43
2018-05-06T05:28:08.415Z,8.67
2018-05-06T05:30:37.080Z,12.17
2018-05-06T05:33:05.051Z,9.03
2018-05-06T05:35:33.108Z,8.37
2018-05-06T05:38:01.075Z,8.10
2018-05-06T05:40:29.098Z,8.30
2018-05-06T05:42:57.041Z,9.30
2018-05-06T05:45:25.183Z,7.93
2018-05-06T05:47:53.216Z,7.87
2018-05-06T05:50:21.246Z,7.60
2018-05-06T05:52:49.272Z,8.00
2018-05-06T05:55:17.334Z,9.10
2018-05-06T05:57:45.321Z,8.63
2018-05-06T06:00:13.257Z,7.70
2018-05-06T06:02:41.337Z,9.00
2018-05-06T06:05:09.309Z,8.20
2018-05-06T06:07:37.389Z,7.00
2018-05-06T06:10:05.370Z,8.17
2018-05-06T06:12:33.457Z,7.40
2018-05-06T06:15:01.686Z,7.83
2018-05-06T06:17:29.602Z,6.23
2018-05-06T06:19:57.618Z,6.33
2018-05-06T06:22:25.638Z,9.03
2018-05-06T06:24:53.619Z,6.30
2018-05-06T06:27:21.620Z,8.00
2018-05-06T06:29:49.622Z,7.80
2018-05-06T06:32:17.944Z,8.87
2018-05-06T06:34:46.012Z,6.97
2018-05-06T06:37:14.045Z,7.77
2018-05-06T06:39:42.084Z,7.63
2018-05-06T06:42:10.132Z,7.13
2018-05-06T06:44:38.162Z,7.03
2018-05-06T06:47:06.191Z,6.10
2018-05-06T06:49:34.195Z,7.07
2018-05-06T06:52:02.236Z,8.30
2018-05-06T06:54:30.315Z,7.13
2018-05-06T06:56:58.451Z,7.60
2018-05-06T06:59:26.743Z,7.40
2018-05-06T07:01:55.743Z,7.30
2018-05-06T07:04:23.935Z,6.00
2018-05-06T07:06:51.955Z,6.53
2018-05-06T07:09:20.044Z,8.43
2018-05-06T07:11:48.215Z,7.00
2018-05-06T07:14:16.252Z,7.50
2018-05-06T07:16:44.319Z,7.10
2018-05-06T07:19:12.336Z,7.73
2018-05-06T07:21:40.345Z,7.30
2018-05-06T07:24:08.364Z,6.60
2018-05-06T07:26:36.428Z,7.40
2018-05-06T07:29:04.448Z,6.93
2018-05-06T07:31:32.450Z,7.60
2018-05-06T07:34:00.737Z,7.40
2018-05-06T07:36:28.831Z,8.03
2018-05-06T07:38:56.804Z,6.80
2018-05-06T07:41:24.852Z,6.50
2018-05-06T07:43:52.910Z,5.87
2018-05-06T07:46:20.874Z,6.40
2018-05-06T07:48:48.875Z,7.17
2018-05-06T07:51:16.917Z,7.30
2018-05-06T07:53:44.967Z,6.47
2018-05-06T07:56:12.934Z,6.60
2018-05-06T07:58:41.085Z,7.40
2018-05-06T08:01:09.237Z,6.50
2018-05-06T08:03:37.247Z,6.47
2018-05-06T08:06:05.354Z,6.43
2018-05-06T08:08:33.368Z,9.30
2018-05-06T08:11:01.370Z,7.00
2018-05-06T08:13:29.396Z,6.40
2018-05-06T08:15:57.365Z,6.90
2018-05-06T08:18:25.388Z,8.23
2018-05-06T08:20:53.383Z,6.97
2018-05-06T08:23:21.403Z,6.67
2018-05-06T08:25:49.420Z,6.67
2018-05-06T08:28:17.389Z,6.83
2018-05-06T08:30:45.542Z,7.67
2018-05-06T08:33:13.675Z,6.57
2018-05-06T08:35:42.115Z,7.60
2018-05-06T08:38:10.139Z,7.97
2018-05-06T08:40:38.226Z,5.53
2018-05-06T08:43:06.349Z,6.80
2018-05-06T08:45:34.392Z,5.73
2018-05-06T08:48:02.532Z,4.77
2018-05-06T08:50:30.518Z,5.40
2018-05-06T08:52:58.583Z,6.73
2018-05-06T08:55:26.643Z,7.07
2018-05-06T08:57:54.704Z,6.30
2018-05-06T09:00:22.810Z,7.70
2018-05-06T09:02:50.890Z,7.07
2018-05-06T09:05:18.951Z,7.17
2018-05-06T09:07:47.046Z,7.10
2018-05-06T09:10:15.120Z,5.80
2018-05-06T09:12:43.212Z,6.50
2018-05-06T09:15:11.259Z,6.07
2018-05-06T09:17:39.251Z,5.20
2018-05-06T09:20:07.270Z,5.67
2018-05-06T09:22:35.366Z,6.07
2018-05-06T09:25:03.578Z,6.57
2018-05-06T09:27:31.708Z,6.53
2018-05-06T09:29:59.870Z,5.27
2018-05-06T09:32:27.882Z,5.43
2018-05-06T09:34:56.007Z,6.07
2018-05-06T09:37:24.549Z,4.80
2018-05-06T09:39:52.651Z,5.20
2018-05-06T09:42:20.761Z,4.33
2018-05-06T09:44:48.965Z,3.90
2018-05-06T09:47:17.001Z,4.37
2018-05-06T09:49:45.085Z,3.17
2018-05-06T09:52:13.174Z,2.60
2018-05-06T09:54:41.403Z,5.47
2018-05-06T09:57:10.228Z,5.83
2018-05-06T09:59:38.332Z,4.40
2018-05-06T10:02:06.476Z,3.70
2018-05-06T10:04:34.593Z,3.80
2018-05-06T10:07:02.717Z,4.13
2018-05-06T10:09:30.884Z,2.90
2018-05-06T10:11:59.144Z,3.30
2018-05-06T10:14:27.248Z,4.33
2018-05-06T10:16:55.326Z,3.97
2018-05-06T10:19:23.445Z,3.80
2018-05-06T10:21:51.582Z,5.40
2018-05-06T10:24:19.684Z,5.00
2018-05-06T10:26:47.774Z,7.10
2018-05-06T10:29:15.847Z,7.20
2018-05-06T10:31:43.991Z,6.17
2018-05-06T10:34:12.069Z,7.33
2018-05-06T10:36:40.145Z,6.90
2018-05-06T10:39:08.467Z,5.00
2018-05-06T10:41:36.522Z,6.10
2018-05-06T10:44:04.684Z,6.50
2018-05-06T10:46:32.715Z,6.90
2018-05-06T10:49:00.878Z,6.10
2018-05-06T10:51:28.894Z,7.63
2018-05-06T10:53:56.995Z,6.37
2018-05-06T10:56:25.017Z,7.60
2018-05-06T10:58:53.074Z,8.07
2018-05-06T11:01:21.147Z,6.80
2018-05-06T11:03:49.201Z,9.33
2018-05-06T11:06:17.240Z,8.83
2018-05-06T11:08:45.388Z,10.77
2018-05-06T11:11:13.448Z,9.47
2018-05-06T11:13:41.459Z,6.40
2018-05-06T11:16:10.397Z,5.10
2018-05-06T11:18:38.528Z,8.07
2018-05-06T11:21:06.535Z,7.67
2018-05-06T11:23:34.639Z,6.57
2018-05-06T11:26:02.707Z,7.10
2018-05-06T11:28:30.718Z,6.60
2018-05-06T11:30:58.805Z,8.33
2018-05-06T11:33:26.933Z,7.13
2018-05-06T11:35:54.972Z,9.10
2018-05-06T11:38:22.951Z,6.93
2018-05-06T11:40:51.287Z,6.50
2018-05-06T11:43:19.353Z,4.93
2018-05-06T11:45:47.441Z,5.77
2018-05-06T11:48:15.457Z,5.03
2018-05-06T11:50:43.517Z,4.70
2018-05-06T11:53:11.554Z,3.70
2018-05-06T11:55:39.619Z,4.50
2018-05-06T11:58:07.696Z,5.70
2018-05-06T12:00:35.770Z,4.47
2018-05-06T12:03:03.873Z,4.40
2018-05-06T12:05:31.953Z,4.70
2018-05-06T12:08:00.145Z,3.80
2018-05-06T12:10:28.233Z,4.10
2018-05-06T12:12:56.389Z,3.60
2018-05-06T12:15:24.617Z,4.10
2018-05-06T12:17:52.710Z,3.90
2018-05-06T12:20:20.841Z,3.93
2018-05-06T12:22:49.081Z,3.53
2018-05-06T12:25:17.163Z,3.60
2018-05-06T12:27:45.259Z,4.03
2018-05-06T12:30:13.273Z,3.13
2018-05-06T12:32:41.346Z,3.40
2018-05-06T12:35:12.005Z,3.27
2018-05-06T12:37:40.018Z,2.40
2018-05-06T12:40:08.047Z,2.10
2018-05-06T12:42:36.334Z,2.20
2018-05-06T12:45:04.405Z,2.30
2018-05-06T12:47:32.559Z,2.10
2018-05-06T12:50:00.680Z,3.03
2018-05-06T12:52:28.621Z,2.90
2018-05-06T12:54:56.630Z,2.57
2018-05-06T12:57:24.670Z,2.50
2018-05-06T12:59:52.723Z,2.27
2018-05-06T13:02:20.837Z,2.37
2018-05-06T13:04:48.916Z,2.90
2018-05-06T13:07:17.063Z,3.10
2018-05-06T13:09:45.158Z,3.60
2018-05-06T13:12:13.333Z,3.70
2018-05-06T13:14:41.453Z,2.63
2018-05-06T13:17:09.438Z,3.67
2018-05-06T13:19:38.505Z,3.30
2018-05-06T13:22:06.641Z,2.63
2018-05-06T13:24:34.708Z,2.33
2018-05-06T13:27:02.779Z,2.50
2018-05-06T13:29:30.865Z,2.50
2018-05-06T13:31:58.989Z,3.00
2018-05-06T13:34:27.203Z,3.63
2018-05-06T13:36:55.228Z,2.67
2018-05-06T13:39:23.282Z,3.30
2018-05-06T13:41:51.386Z,3.27
2018-05-06T13:44:19.707Z,5.83
2018-05-06T13:46:47.759Z,3.23
2018-05-06T13:49:15.765Z,2.13
2018-05-06T13:51:43.763Z,3.00
2018-05-06T13:54:11.835Z,3.30
2018-05-06T13:56:39.933Z,3.17
2018-05-06T13:59:08.130Z,3.20
2018-05-06T14:01:36.193Z,3.87
2018-05-06T14:04:04.309Z,2.70
2018-05-06T14:06:32.385Z,3.47
2018-05-06T14:09:00.396Z,2.30
2018-05-06T14:11:28.467Z,2.10
2018-05-06T14:13:56.598Z,2.20
2018-05-06T14:16:24.711Z,1.40
2018-05-06T14:18:52.930Z,1.97
2018-05-06T14:21:20.933Z,1.93
2018-05-06T14:23:48.967Z,2.50
2018-05-06T14:26:16.950Z,2.33
2018-05-06T14:28:44.988Z,1.90
2018-05-06T14:31:12.974Z,2.13
2018-05-06T14:33:41.167Z,1.73
2018-05-06T14:36:09.240Z,1.80
2018-05-06T14:38:37.366Z,2.60
2018-05-06T14:41:05.429Z,2.20
2018-05-06T14:43:33.534Z,2.30
2018-05-06T14:46:01.898Z,3.77
2018-05-06T14:48:29.973Z,3.33
2018-05-06T14:50:58.024Z,2.33
2018-05-06T14:53:26.203Z,2.53
2018-05-06T14:55:54.398Z,2.67
2018-05-06T14:58:22.416Z,2.67
2018-05-06T15:00:50.435Z,2.70
2018-05-06T15:03:18.522Z,2.23
2018-05-06T15:05:46.683Z,1.83
2018-05-06T15:08:14.725Z,2.10
2018-05-06T15:10:42.811Z,1.80
2018-05-06T15:13:10.742Z,1.87
2018-05-06T15:15:39.074Z,1.83
2018-05-06T15:18:07.110Z,1.93
2018-05-06T15:20:35.120Z,2.40
2018-05-06T15:23:03.167Z,3.93
2018-05-06T15:25:31.154Z,1.70
2018-05-06T15:27:59.218Z,1.97
2018-05-06T15:30:27.210Z,1.80
2018-05-06T15:32:55.230Z,2.57
2018-05-06T15:35:23.262Z,3.33
2018-05-06T15:37:51.316Z,2.20
2018-05-06T15:40:19.383Z,2.30
2018-05-06T15:42:47.372Z,2.10
2018-05-06T15:45:15.389Z,2.40
2018-05-06T15:47:43.640Z,1.83
2018-05-06T15:50:11.757Z,2.70
2018-05-06T15:52:39.796Z,2.00
2018-05-06T15:55:07.821Z,2.40
2018-05-06T15:57:35.922Z,2.80
2018-05-06T16:00:04.059Z,2.87
2018-05-06T16:05:38.136Z,2.40
2018-05-06T16:08:06.213Z,3.50
2018-05-06T16:10:34.273Z,3.20
2018-05-06T16:13:02.380Z,2.20
2018-05-06T16:15:30.493Z,3.33
2018-05-06T16:17:58.619Z,2.83
2018-05-06T16:20:26.690Z,3.37
2018-05-06T16:22:54.660Z,3.60
2018-05-06T16:25:22.724Z,3.77
2018-05-06T16:27:50.739Z,4.03
2018-05-06T16:30:18.788Z,2.67
2018-05-06T16:32:46.897Z,4.00
2018-05-06T16:35:14.926Z,2.67
2018-05-06T16:37:42.971Z,4.23
2018-05-06T16:40:11.138Z,4.50
2018-05-06T16:42:39.277Z,4.00
2018-05-06T16:45:07.418Z,4.30
2018-05-06T16:47:35.488Z,4.93
2018-05-06T16:50:04.046Z,4.90
2018-05-06T16:52:32.226Z,6.27
2018-05-06T16:55:01.308Z,5.53
2018-05-06T16:57:29.464Z,5.73
2018-05-06T16:59:59.046Z,4.33
2018-05-06T17:02:27.322Z,4.47
2018-05-06T17:04:55.541Z,3.40
2018-05-06T17:07:25.071Z,4.07
2018-05-06T17:09:53.095Z,3.10
2018-05-06T17:12:21.173Z,4.00
2018-05-06T17:14:49.213Z,3.17
2018-05-06T17:17:17.229Z,4.30
2018-05-06T17:19:45.361Z,3.40
2018-05-06T17:22:13.449Z,2.93
2018-05-06T17:24:41.493Z,3.23
2018-05-06T17:27:09.582Z,4.90
2018-05-06T17:29:37.651Z,3.67
2018-05-06T17:32:05.804Z,3.70
2018-05-06T17:34:33.936Z,4.40
2018-05-06T17:37:02.437Z,4.40
2018-05-06T17:39:30.502Z,5.23
2018-05-06T17:41:58.604Z,5.00
2018-05-06T17:44:26.664Z,4.17
2018-05-06T17:46:54.759Z,4.13
2018-05-06T17:49:22.801Z,6.50
2018-05-06T17:51:51.097Z,6.37
2018-05-06T17:54:19.155Z,5.13
2018-05-06T17:56:47.191Z,3.70
2018-05-06T17:59:15.249Z,4.40
2018-05-06T18:01:43.385Z,3.30
2018-05-06T18:04:11.352Z,3.90
2018-05-06T18:06:39.398Z,2.80
2018-05-06T18:09:07.395Z,2.50
2018-05-06T18:11:35.415Z,3.40
2018-05-06T18:14:03.438Z,3.30
2018-05-06T18:16:31.521Z,3.70
2018-05-06T18:18:59.578Z,3.50
2018-05-06T18:21:27.683Z,4.27
2018-05-06T18:23:55.747Z,4.17
2018-05-06T18:26:23.786Z,2.70
2018-05-06T18:28:51.793Z,3.30
2018-05-06T18:31:19.870Z,3.23
2018-05-06T18:33:47.861Z,4.07
2018-05-06T18:36:15.865Z,2.90
2018-05-06T18:38:43.952Z,2.57
2018-05-06T18:41:11.974Z,2.60
2018-05-06T18:43:40.001Z,2.80
2018-05-06T18:46:08.085Z,3.27
2018-05-06T18:48:36.182Z,3.10
2018-05-06T18:51:04.252Z,4.90
2018-05-06T18:53:32.313Z,3.10
2018-05-06T18:56:00.347Z,3.00
2018-05-06T18:58:28.426Z,2.40
2018-05-06T19:00:56.608Z,2.63
2018-05-06T19:03:24.641Z,4.00
2018-05-06T19:05:53.805Z,3.40
2018-05-06T19:08:24.841Z,3.47
2018-05-06T19:10:53.861Z,2.70
2018-05-06T19:13:29.181Z,3.33
2018-05-06T19:15:57.867Z,3.13
2018-05-06T19:18:25.852Z,3.13
2018-05-06T19:20:53.924Z,3.10
2018-05-06T19:23:22.244Z,6.67
2018-05-06T19:25:51.507Z,4.03
2018-05-06T19:28:28.174Z,9.80
2018-05-06T19:30:56.272Z,4.70
2018-05-06T19:33:24.481Z,4.70
2018-05-06T19:35:54.161Z,3.10
2018-05-06T19:38:22.235Z,3.10
2018-05-06T19:40:50.332Z,3.03
2018-05-06T19:43:18.267Z,3.70
2018-05-06T19:45:46.355Z,6.80
2018-05-06T19:48:14.427Z,3.53
2018-05-06T19:50:42.486Z,2.33
2018-05-06T19:53:10.581Z,2.33
2018-05-06T19:55:39.033Z,2.47
2018-05-06T19:58:07.091Z,2.10
2018-05-06T20:00:35.115Z,2.33
2018-05-06T20:03:03.198Z,2.40
2018-05-06T20:05:31.211Z,1.67
2018-05-06T20:07:59.390Z,1.77
2018-05-06T20:10:27.500Z,1.97
2018-05-06T20:12:55.549Z,2.27
2018-05-06T20:15:23.530Z,1.70
2018-05-06T20:17:51.595Z,1.70
2018-05-06T20:20:19.621Z,1.80
2018-05-06T20:22:47.665Z,1.77
2018-05-06T20:25:15.721Z,1.60
2018-05-06T20:27:43.711Z,1.80
2018-05-06T20:30:11.811Z,2.20
2018-05-06T20:32:39.865Z,2.27
2018-05-06T20:35:07.967Z,1.63
2018-05-06T20:37:36.059Z,2.83
2018-05-06T20:40:04.145Z,1.80
2018-05-06T20:42:32.202Z,1.63
2018-05-06T20:45:00.288Z,2.50
2018-05-06T20:47:28.304Z,2.30
2018-05-06T20:49:56.322Z,2.27
2018-05-06T20:52:25.514Z,2.93
2018-05-06T20:54:53.530Z,2.27
2018-05-06T20:57:21.968Z,2.40
2018-05-06T20:59:50.058Z,2.80
2018-05-06T21:02:18.157Z,1.93
2018-05-06T21:04:46.255Z,2.90
2018-05-06T21:07:14.416Z,2.30
2018-05-06T21:09:42.419Z,2.10
2018-05-06T21:12:10.445Z,3.10
2018-05-06T21:14:38.501Z,2.40
2018-05-06T21:17:06.581Z,2.00
2018-05-06T21:19:34.607Z,2.23
2018-05-06T21:22:02.783Z,2.67
2018-05-06T21:24:30.816Z,3.30
2018-05-06T21:26:58.890Z,2.03
2018-05-06T21:29:26.987Z,1.97
2018-05-06T21:31:55.100Z,2.27
2018-05-06T21:34:23.198Z,2.60
2018-05-06T21:36:51.379Z,2.20
2018-05-06T21:39:19.391Z,2.40
2018-05-06T21:41:47.430Z,3.00
2018-05-06T21:44:15.431Z,2.50
2018-05-06T21:46:43.454Z,3.03
2018-05-06T21:49:11.476Z,2.40
2018-05-06T21:51:39.539Z,3.10
2018-05-06T21:54:07.535Z,2.30
2018-05-06T21:56:35.557Z,2.30
2018-05-06T21:59:03.945Z,2.37
2018-05-06T22:01:32.036Z,2.47
2018-05-06T22:04:00.031Z,2.73
2018-05-06T22:06:28.204Z,3.30
2018-05-06T22:08:56.247Z,2.10
2018-05-06T22:11:24.354Z,2.43
2018-05-06T22:13:52.451Z,2.10
2018-05-06T22:16:20.533Z,2.60
2018-05-06T22:18:48.586Z,2.07
2018-05-06T22:21:16.591Z,2.53
2018-05-06T22:23:44.604Z,3.43
2018-05-06T22:26:12.643Z,2.27
2018-05-06T22:28:40.664Z,1.90
2018-05-06T22:31:08.741Z,2.23
2018-05-06T22:33:36.775Z,2.90
2018-05-06T22:36:04.902Z,2.37
2018-05-06T22:38:32.941Z,2.93
2018-05-06T22:41:01.009Z,2.93
2018-05-06T22:43:29.067Z,1.97
2018-05-06T22:45:57.186Z,2.63
2018-05-06T22:48:25.229Z,2.27
2018-05-06T22:50:53.303Z,2.47
2018-05-06T22:53:21.360Z,2.47
2018-05-06T22:55:49.611Z,2.37
2018-05-06T22:58:17.701Z,2.17
2018-05-06T23:00:48.091Z,2.90
2018-05-06T23:03:17.231Z,2.00
2018-05-06T23:05:45.317Z,2.30
2018-05-06T23:08:13.315Z,2.20
2018-05-06T23:10:41.352Z,2.27
2018-05-06T23:13:09.431Z,2.60
2018-05-06T23:15:37.433Z,2.60
2018-05-06T23:18:05.509Z,2.50
2018-05-06T23:20:33.623Z,2.37
2018-05-06T23:23:01.683Z,2.13
2018-05-06T23:25:29.658Z,1.83
2018-05-06T23:27:57.799Z,2.17
2018-05-06T23:30:25.835Z,1.80
2018-05-06T23:32:53.911Z,2.23
2018-05-06T23:35:21.945Z,2.20
2018-05-06T23:37:50.072Z,1.90
2018-05-06T23:40:18.109Z,2.17
2018-05-06T23:42:46.133Z,2.23
2018-05-06T23:45:14.182Z,2.07
2018-05-06T23:47:42.353Z,3.03
2018-05-06T23:50:10.462Z,2.47
2018-05-06T23:52:38.546Z,1.90
2018-05-06T23:55:06.571Z,2.67
2018-05-06T23:57:34.626Z,2.50
